Time;durP1;ratioP1;P1;durP2;ratioP2;P2;SDS_P1;SDS_P2;PMS_P1;PMS_P2;Temp;Humidity;BMP_temperature;BMP_pressure;BME280_temperature;BME280_humidity;BME280_pressure;Samples;Min_cycle;Max_cycle;Signal;HPM_P1;HPM_P2
2023/02/25 00:01:49;;;;;;;14.50;7.10;;;;;;;5.40;70.20;99120.22;106047;1257;60421;-52
2023/02/25 00:04:31;;;;;;;15.90;6.00;;;;;;;5.44;70.16;99117.64;105539;1254;60722;-52
2023/02/25 00:07:21;;;;;;;21.40;14.40;;;;;;;5.51;70.17;99112.95;105368;1254;66590;-50
2023/02/25 00:09:53;;;;;;;21.10;14.10;;;;;;;5.52;70.17;99109.20;105173;1254;62670;-54
2023/02/25 00:12:22;;;;;;;21.10;14.10;;;;;;;5.50;70.36;99107.98;105342;1260;64914;-51
2023/02/25 00:14:51;;;;;;;17.40;6.60;;;;;;;5.48;70.36;99103.47;105613;1254;60526;-51
2023/02/25 00:17:19;;;;;;;23.70;14.00;;;;;;;5.44;70.59;99102.77;105147;1259;60539;-51
2023/02/25 00:19:48;;;;;;;16.40;6.00;;;;;;;5.41;70.62;99103.67;105268;1257;66129;-53
2023/02/25 00:22:20;;;;;;;22.10;14.80;;;;;;;5.47;70.51;99104.27;105325;1258;62339;-53
2023/02/25 00:24:55;;;;;;;19.20;13.30;;;;;;;5.53;70.46;99104.79;105839;1258;64767;-53
2023/02/25 00:27:24;;;;;;;13.50;6.20;;;;;;;5.56;70.46;99099.30;105319;1254;61113;-53
2023/02/25 00:29:53;;;;;;;25.90;13.90;;;;;;;5.55;70.49;99101.66;105360;1260;60451;-53
2023/02/25 00:32:22;;;;;;;22.00;14.70;;;;;;;5.53;70.50;99098.89;105172;1260;66356;-51
2023/02/25 00:34:51;;;;;;;24.90;15.10;;;;;;;5.48;70.59;99093.86;105418;1254;62659;-52
2023/02/25 00:37:19;;;;;;;26.80;15.30;;;;;;;5.44;70.70;99092.65;105161;1255;65439;-53
2023/02/25 00:39:48;;;;;;;22.10;12.80;;;;;;;5.47;70.46;99089.10;105242;1259;61475;-52
2023/02/25 00:42:17;;;;;;;13.30;5.70;;;;;;;5.54;70.37;99085.25;105542;1255;60543;-54
2023/02/25 00:44:47;;;;;;;14.10;5.80;;;;;;;5.55;70.38;99083.91;105168;1256;66103;-55
2023/02/25 00:47:17;;;;;;;26.90;14.70;;;;;;;5.52;70.54;99086.27;105253;1257;62372;-52
2023/02/25 00:49:46;;;;;;;11.60;6.00;;;;;;;5.49;70.61;99078.86;105253;1257;64979;-54
2023/02/25 00:52:15;;;;;;;26.00;15.60;;;;;;;5.46;70.64;99078.74;105275;1254;61391;-53
2023/02/25 00:54:43;;;;;;;15.90;6.70;;;;;;;5.43;70.53;99076.05;105372;1257;60458;-53
2023/02/25 00:57:11;;;;;;;12.70;6.40;;;;;;;5.45;70.54;99070.52;105461;1257;66167;-53
2023/02/25 00:59:40;;;;;;;11.90;6.60;;;;;;;5.50;70.51;99072.88;105231;1259;62705;-52
2023/02/25 01:02:08;;;;;;;22.90;15.10;;;;;;;5.53;70.50;99074.85;105364;1260;64898;-53
2023/02/25 01:04:37;;;;;;;13.00;5.80;;;;;;;5.54;70.47;99078.08;105742;1254;60404;-53
2023/02/25 01:07:07;;;;;;;27.70;17.10;;;;;;;5.55;70.47;99070.73;105219;1254;60498;-54
2023/02/25 01:09:37;;;;;;;25.20;15.80;;;;;;;5.54;70.61;99064.34;105108;1263;66182;-53
2023/02/25 01:12:06;;;;;;;25.10;15.80;;;;;;;5.54;70.54;99058.44;105569;1255;62788;-52
2023/02/25 01:14:35;;;;;;;13.50;7.30;;;;;;;5.58;70.51;99054.84;105236;1260;65048;-51
2023/02/25 01:17:04;;;;;;;35.80;16.60;;;;;;;5.63;70.26;99053.71;105280;1254;60500;-53
2023/02/25 01:19:33;;;;;;;24.60;15.40;;;;;;;5.66;70.19;99047.41;105491;1258;60434;-52
2023/02/25 01:22:01;;;;;;;26.50;8.70;;;;;;;5.64;70.32;99047.87;105126;1260;66308;-53
2023/02/25 01:24:32;;;;;;;24.10;16.40;;;;;;;5.61;70.31;99042.59;105546;1259;61692;-53
2023/02/25 01:27:01;;;;;;;29.00;16.40;;;;;;;5.57;70.36;99043.73;105177;1257;63748;-51
2023/02/25 01:29:33;;;;;;;25.70;15.60;;;;;;;5.53;70.40;99041.79;105231;1254;60562;-51
2023/02/25 01:32:02;;;;;;;21.60;14.10;;;;;;;5.55;70.22;99039.25;105144;1257;61398;-52
2023/02/25 01:34:31;;;;;;;26.30;14.50;;;;;;;5.60;70.14;99035.20;105664;1257;66137;-51
2023/02/25 01:37:04;;;;;;;25.40;14.60;;;;;;;5.64;70.16;99028.77;105110;1259;62933;-51
2023/02/25 01:39:33;;;;;;;30.50;16.40;;;;;;;5.64;70.25;99028.08;105607;1258;64791;-53
2023/02/25 01:42:03;;;;;;;27.10;16.50;;;;;;;5.63;70.33;99028.50;105201;1257;60421;-51
2023/02/25 01:44:33;;;;;;;23.30;16.40;;;;;;;5.61;70.33;99024.48;105185;1254;63302;-51
2023/02/25 01:47:19;;;;;;;15.10;6.60;;;;;;;5.56;70.34;99017.70;105077;1258;66193;-53
2023/02/25 01:49:48;;;;;;;27.40;15.60;;;;;;;5.57;70.29;99015.92;105209;1260;62678;-49
2023/02/25 01:52:21;;;;;;;21.80;14.80;;;;;;;5.60;70.34;99013.56;105295;1260;65600;-52
2023/02/25 01:54:54;;;;;;;18.70;9.30;;;;;;;5.64;70.29;99011.34;105286;1263;60555;-52
2023/02/25 01:57:23;;;;;;;24.20;16.60;;;;;;;5.64;70.21;99002.47;105472;1255;60463;-52
2023/02/25 01:59:52;;;;;;;20.80;15.60;;;;;;;5.65;70.28;99004.70;105181;1258;66095;-53
2023/02/25 02:02:22;;;;;;;25.30;17.00;;;;;;;5.62;70.30;99000.73;105283;1260;61725;-53
2023/02/25 02:04:51;;;;;;;34.80;16.10;;;;;;;5.59;70.35;99002.51;105138;1254;64814;-52
2023/02/25 02:07:20;;;;;;;23.10;16.00;;;;;;;5.62;70.23;98996.44;105353;1254;60555;-53
2023/02/25 02:09:55;;;;;;;26.40;15.60;;;;;;;5.66;70.07;98986.13;105750;1257;60453;-53
2023/02/25 02:12:30;;;;;;;26.70;16.20;;;;;;;5.69;70.04;98988.83;105218;1260;66590;-56
2023/02/25 02:15:01;;;;;;;14.70;6.50;;;;;;;5.71;70.04;98981.55;105129;1255;63477;-52
2023/02/25 02:17:41;;;;;;;25.20;16.40;;;;;;;5.70;70.02;98975.70;105281;1268;65119;-51
2023/02/25 02:20:53;;;;;;;17.70;8.10;;;;;;;5.68;70.08;98973.79;105123;1260;60758;-52
2023/02/25 02:23:30;;;;;;;25.10;16.70;;;;;;;5.64;70.06;98976.73;104978;1259;60562;-53
2023/02/25 02:26:34;;;;;;;12.90;5.70;;;;;;;5.59;69.97;98982.13;105232;1259;66024;-52
2023/02/25 02:29:31;;;;;;;13.50;7.10;;;;;;;5.62;69.86;98985.23;105454;1257;62538;-52
2023/02/25 02:32:00;;;;;;;;;;;;;;;5.66;69.79;98981.98;105146;1254;65083;-52
2023/02/25 02:34:48;;;;;;;14.50;6.30;;;;;;;5.67;69.75;98980.48;105451;1257;60440;-51
2023/02/25 02:37:38;;;;;;;24.90;17.00;;;;;;;5.67;69.93;98979.25;105692;1259;60434;-51
2023/02/25 02:40:18;;;;;;;14.50;6.40;;;;;;;5.67;70.00;98976.33;105054;1260;66403;-52
2023/02/25 02:42:50;;;;;;;25.80;16.90;;;;;;;5.65;69.98;98980.27;105427;1258;62566;-51
2023/02/25 02:45:51;;;;;;;29.30;18.00;;;;;;;5.63;70.00;98974.57;105438;1258;64856;-52
2023/02/25 02:48:32;;;;;;;24.30;16.90;;;;;;;5.60;69.98;98967.66;105206;1260;60450;-52
2023/02/25 02:51:02;;;;;;;16.40;7.20;;;;;;;5.64;69.90;98964.41;105139;1260;61061;-52
2023/02/25 02:53:39;;;;;;;13.30;6.50;;;;;;;5.69;69.81;98964.63;105303;1264;66348;-52
2023/02/25 02:56:08;;;;;;;26.00;16.90;;;;;;;5.74;69.82;98964.63;105045;1260;63369;-51
2023/02/25 02:58:39;;;;;;;26.40;17.20;;;;;;;5.77;69.81;98964.54;105314;1258;65098;-52
2023/02/25 03:01:25;;;;;;;25.30;18.40;;;;;;;5.79;69.78;98963.36;105233;1259;60539;-52
2023/02/25 03:03:58;;;;;;;32.30;19.10;;;;;;;5.78;69.73;98956.11;105415;1260;60466;-53
2023/02/25 03:06:37;;;;;;;17.10;7.90;;;;;;;5.75;69.64;98951.48;105272;1260;66154;-51
2023/02/25 03:09:12;;;;;;;15.40;8.40;;;;;;;5.71;69.63;98945.70;105272;1257;62332;-51
2023/02/25 03:11:42;;;;;;;15.90;7.80;;;;;;;5.67;69.69;98944.69;104963;1254;65274;-51
2023/02/25 03:14:12;;;;;;;31.80;20.10;;;;;;;5.61;69.69;98940.25;104974;1255;60396;-51
2023/02/25 03:16:51;;;;;;;27.40;19.80;;;;;;;5.60;69.79;98938.81;105301;1254;60478;-52
2023/02/25 03:19:25;;;;;;;27.50;18.20;;;;;;;5.63;69.60;98933.64;105368;1254;66229;-51
2023/02/25 03:21:57;;;;;;;13.80;5.90;;;;;;;5.69;69.57;98930.02;105116;1254;62465;-53
2023/02/25 03:24:44;;;;;;;14.70;7.00;;;;;;;5.75;69.53;98929.00;105204;1257;64767;-52
2023/02/25 03:27:42;;;;;;;17.70;6.90;;;;;;;5.82;69.60;98920.97;105396;1260;60639;-52
2023/02/25 03:30:24;;;;;;;26.30;18.50;;;;;;;5.84;69.54;98919.73;105326;1260;62693;-51
2023/02/25 03:33:15;;;;;;;26.30;19.50;;;;;;;5.84;69.51;98927.44;105268;1259;64837;-51
2023/02/25 03:35:43;;;;;;;28.20;19.50;;;;;;;5.82;69.48;98931.25;105021;1260;61926;-51
2023/02/25 03:38:15;;;;;;;31.20;20.00;;;;;;;5.78;69.54;98928.08;105498;1254;65224;-51
2023/02/25 03:40:46;;;;;;;17.80;7.20;;;;;;;5.72;69.51;98920.90;105343;1259;60916;-51
2023/02/25 03:43:23;;;;;;;34.00;19.00;;;;;;;5.71;69.54;98916.80;105055;1260;60520;-52
2023/02/25 03:45:55;;;;;;;30.30;19.40;;;;;;;5.75;69.58;98914.05;105248;1256;64981;-51
2023/02/25 03:48:23;;;;;;;26.40;19.30;;;;;;;5.79;69.67;98908.54;105391;1260;62516;-51
2023/02/25 03:50:58;;;;;;;20.50;10.00;;;;;;;5.79;69.77;98905.38;105255;1260;65877;-51
2023/02/25 03:53:46;;;;;;;19.00;9.20;;;;;;;5.76;69.77;98907.17;105079;1254;60809;-51
2023/02/25 03:56:19;;;;;;;32.20;22.90;;;;;;;5.72;69.93;98901.76;105266;1255;63233;-51
2023/02/25 03:58:47;;;;;;;36.90;21.00;;;;;;;5.66;70.11;98899.99;105251;1258;65903;-51
2023/02/25 04:01:20;;;;;;;32.40;20.40;;;;;;;5.67;70.21;98904.99;105174;1257;62487;-56
2023/02/25 04:03:49;;;;;;;28.70;20.20;;;;;;;5.71;70.18;98902.23;105146;1257;64955;-53
2023/02/25 04:06:21;;;;;;;34.40;22.10;;;;;;;5.74;70.19;98899.70;105321;1259;60567;-53
2023/02/25 04:08:51;;;;;;;16.90;8.20;;;;;;;5.74;70.38;98895.17;105441;1260;60514;-53
2023/02/25 04:11:19;;;;;;;27.40;21.30;;;;;;;5.73;70.44;98891.92;105297;1264;66141;-54
2023/02/25 04:13:48;;;;;;;15.30;8.90;;;;;;;5.72;70.48;98890.45;105053;1254;62871;-54
2023/02/25 04:16:18;;;;;;;33.30;22.00;;;;;;;5.70;70.52;98891.18;105286;1258;65231;-53
2023/02/25 04:18:47;;;;;;;34.60;22.30;;;;;;;5.67;70.62;98887.58;104777;1254;419328;-53
2023/02/25 04:34:36;;;;;;;29.50;21.00;;;;;;;6.00;70.21;98880.77;102621;1286;605141;-52
2023/02/25 04:37:04;;;;;;;30.30;21.50;;;;;;;6.40;69.10;98876.23;104233;1270;104255;-50
2023/02/25 04:39:32;;;;;;;38.80;23.40;;;;;;;6.34;69.14;98869.94;104315;1264;61488;-51
2023/02/25 04:42:01;;;;;;;33.80;21.40;;;;;;;6.28;69.19;98868.02;104289;1269;64607;-51
2023/02/25 04:44:33;;;;;;;19.50;9.70;;;;;;;6.23;69.26;98864.98;104360;1267;62655;-52
2023/02/25 04:47:01;;;;;;;32.40;21.20;;;;;;;6.21;69.27;98863.38;104339;1265;65117;-53
2023/02/25 04:49:29;;;;;;;38.70;22.80;;;;;;;6.20;69.23;98861.77;104537;1264;59542;-53
2023/02/25 04:51:59;;;;;;;34.40;21.80;;;;;;;6.14;69.42;98853.84;104639;1267;59738;-51
2023/02/25 04:54:28;;;;;;;32.60;22.50;;;;;;;6.08;69.50;98845.36;104770;1264;67126;-50
2023/02/25 04:56:57;;;;;;;32.40;24.60;;;;;;;6.02;69.60;98854.56;104891;1261;62669;-52
2023/02/25 04:59:26;;;;;;;18.40;9.20;;;;;;;5.97;69.80;98859.38;105449;1263;65233;-50
2023/02/25 05:01:54;;;;;;;33.50;20.80;;;;;;;5.96;69.85;98851.08;105265;1257;62234;-54
2023/02/25 05:04:23;;;;;;;22.80;10.50;;;;;;;5.97;69.83;98845.64;105005;1258;60053;-51
2023/02/25 05:06:51;;;;;;;38.30;23.10;;;;;;;5.97;69.84;98845.04;105113;1260;65291;-51
2023/02/25 05:09:20;;;;;;;20.50;8.90;;;;;;;5.97;69.96;98833.39;105116;1257;62370;-51
2023/02/25 05:11:48;;;;;;;38.20;24.90;;;;;;;5.95;70.13;98835.14;105076;1264;64047;-52
2023/02/25 05:14:17;;;;;;;36.30;22.80;;;;;;;5.94;70.20;98833.97;104959;1257;59660;-52
2023/02/25 05:16:47;;;;;;;37.30;25.70;;;;;;;5.94;70.12;98836.59;105352;1261;59952;-52
2023/02/25 05:19:23;;;;;;;33.70;23.20;;;;;;;5.91;70.13;98845.16;105177;1257;65356;-52
2023/02/25 05:21:51;;;;;;;21.50;9.20;;;;;;;5.93;70.05;98848.89;105252;1263;63072;-52
2023/02/25 05:24:22;;;;;;;31.70;22.30;;;;;;;5.94;69.97;98847.88;105004;1257;64692;-52
2023/02/25 05:26:50;;;;;;;21.30;10.10;;;;;;;5.91;70.05;98853.50;105210;1257;59763;-52
2023/02/25 05:29:20;;;;;;;38.60;24.30;;;;;;;5.85;70.17;98853.16;105241;1257;59811;-52
2023/02/25 05:31:50;;;;;;;21.60;11.20;;;;;;;5.81;70.34;98853.01;105170;1257;65080;-52
2023/02/25 05:34:21;;;;;;;35.30;24.30;;;;;;;5.77;70.48;98859.75;105024;1259;62684;-51
2023/02/25 05:36:49;;;;;;;33.50;24.30;;;;;;;5.73;70.55;98861.11;104933;1257;64816;-52
2023/02/25 05:39:19;;;;;;;30.80;24.00;;;;;;;5.75;70.49;98860.44;105009;1261;59725;-53
2023/02/25 05:41:47;;;;;;;38.80;25.70;;;;;;;5.78;70.72;98864.57;105053;1258;59714;-51
2023/02/25 05:44:16;;;;;;;42.00;26.00;;;;;;;5.82;70.68;98869.34;105025;1262;65360;-52
2023/02/25 05:46:45;;;;;;;39.00;25.80;;;;;;;5.82;70.73;98868.45;105093;1260;62609;-52
2023/02/25 05:49:13;;;;;;;38.90;27.00;;;;;;;5.83;70.80;98871.88;105107;1261;64726;-51
2023/02/25 05:51:43;;;;;;;41.50;27.70;;;;;;;5.82;70.86;98866.02;105357;1261;59745;-51
2023/02/25 05:54:11;;;;;;;35.80;24.60;;;;;;;5.82;70.84;98866.05;105327;1260;59700;-51
2023/02/25 05:56:40;;;;;;;20.40;10.90;;;;;;;5.85;70.68;98861.20;105250;1261;65366;-51
2023/02/25 05:59:12;;;;;;;18.70;9.80;;;;;;;5.90;70.74;98858.39;105050;1261;62796;-51
2023/02/25 06:01:42;;;;;;;17.60;8.80;;;;;;;5.95;70.72;98853.41;105046;1262;65074;-52
2023/02/25 06:04:11;;;;;;;37.70;25.40;;;;;;;6.01;70.92;98842.14;105089;1260;59650;-52
2023/02/25 06:06:40;;;;;;;28.90;13.20;;;;;;;6.03;70.72;98841.56;105196;1260;59663;-53
2023/02/25 06:09:09;;;;;;;37.10;26.90;;;;;;;6.03;70.71;98844.86;105070;1260;65294;-51
2023/02/25 06:11:37;;;;;;;23.50;11.20;;;;;;;6.05;70.64;98847.21;105516;1260;62698;-52
2023/02/25 06:14:05;;;;;;;19.40;10.90;;;;;;;6.05;70.56;98844.89;105326;1263;65157;-51
2023/02/25 06:16:37;;;;;;;26.00;10.10;;;;;;;6.08;70.36;98846.06;105243;1258;59706;-52
2023/02/25 06:19:06;;;;;;;18.40;11.10;;;;;;;6.12;70.27;98844.84;105192;1258;59695;-51
2023/02/25 06:21:35;;;;;;;33.20;24.10;;;;;;;6.17;70.14;98835.77;105507;1263;65129;-51
2023/02/25 06:24:04;;;;;;;32.70;24.70;;;;;;;6.19;70.15;98833.14;104977;1263;71247;-52
2023/02/25 06:26:40;;;;;;;33.20;25.20;;;;;;;6.20;70.15;98820.85;105440;1258;65133;-52
2023/02/25 06:29:09;;;;;;;23.20;11.40;;;;;;;6.22;70.15;98812.48;104843;1261;59644;-51
2023/02/25 06:31:39;;;;;;;37.80;27.60;;;;;;;6.22;70.19;98798.52;104928;1261;59764;-53
2023/02/25 06:34:07;;;;;;;37.00;25.90;;;;;;;6.23;70.26;98792.52;105035;1262;65443;-51
2023/02/25 06:36:36;;;;;;;35.70;24.80;;;;;;;6.30;70.01;98784.81;104859;1260;62694;-51
2023/02/25 06:39:04;;;;;;;33.40;24.10;;;;;;;6.38;69.82;98778.65;105033;1260;65069;-52
2023/02/25 06:41:32;;;;;;;35.50;24.80;;;;;;;6.46;69.65;98771.70;104801;1262;59660;-52
2023/02/25 06:44:03;;;;;;;24.60;11.70;;;;;;;6.52;69.58;98763.20;104876;1261;59767;-52
2023/02/25 06:46:31;;;;;;;31.20;23.80;;;;;;;6.55;69.45;98756.77;105009;1262;65369;-52
2023/02/25 06:49:01;;;;;;;37.10;27.30;;;;;;;6.58;69.42;98748.35;104835;1259;62858;-52
2023/02/25 06:51:31;;;;;;;38.70;27.60;;;;;;;6.60;69.39;98741.50;105304;1260;65014;-51
2023/02/25 06:54:04;;;;;;;34.80;24.70;;;;;;;6.62;69.28;98742.54;104791;1258;59676;-52
2023/02/25 06:56:33;;;;;;;36.90;26.20;;;;;;;6.70;69.06;98744.99;105241;1259;59624;-52
2023/02/25 06:59:01;;;;;;;34.40;23.70;;;;;;;6.80;68.83;98757.84;104812;1261;64378;-50
2023/02/25 07:01:31;;;;;;;39.20;25.60;;;;;;;6.88;68.48;98769.86;105107;1258;62335;-52
2023/02/25 07:04:00;;;;;;;40.10;27.00;;;;;;;6.90;68.20;98772.53;104979;1262;64837;-52
2023/02/25 07:06:30;;;;;;;42.20;26.30;;;;;;;6.88;68.35;98772.46;104799;1260;59640;-51
2023/02/25 07:08:58;;;;;;;37.60;27.60;;;;;;;6.87;68.28;98773.64;104695;1258;59686;-53
2023/02/25 07:11:29;;;;;;;39.40;28.60;;;;;;;6.84;68.17;98776.66;105031;1261;65611;-52
2023/02/25 07:13:57;;;;;;;34.10;25.30;;;;;;;6.79;68.18;98773.45;104765;1262;70659;-51
2023/02/25 07:16:26;;;;;;;38.30;26.10;;;;;;;6.79;67.97;98766.48;104767;1257;64799;-53
2023/02/25 07:18:57;;;;;;;41.20;28.70;;;;;;;6.78;67.92;98757.73;104867;1257;59563;-52
2023/02/25 07:21:28;;;;;;;36.00;27.90;;;;;;;6.75;68.06;98751.38;105113;1259;59811;-52
2023/02/25 07:23:56;;;;;;;39.50;28.70;;;;;;;6.74;68.35;98752.13;104754;1257;65897;-51
2023/02/25 07:26:27;;;;;;;39.80;28.30;;;;;;;6.77;68.37;98751.54;104999;1257;62605;-52
2023/02/25 07:28:58;;;;;;;46.60;30.50;;;;;;;6.77;68.34;98749.23;104886;1258;64751;-53
2023/02/25 07:31:27;;;;;;;24.00;10.90;;;;;;;6.78;68.29;98748.80;104774;1259;59717;-52
2023/02/25 07:34:02;;;;;;;37.40;27.40;;;;;;;6.82;68.12;98747.08;104996;1262;59736;-55
2023/02/25 07:36:34;;;;;;;33.50;26.90;;;;;;;6.88;68.02;98736.91;105226;1259;65068;-52
2023/02/25 07:39:03;;;;;;;36.70;27.20;;;;;;;6.97;68.01;98730.20;105006;1260;61427;-53
2023/02/25 07:41:32;;;;;;;25.70;12.80;;;;;;;7.03;68.09;98721.03;104895;1260;64741;-53
2023/02/25 07:44:03;;;;;;;43.40;28.40;;;;;;;7.11;68.08;98709.73;105267;1258;59549;-53
2023/02/25 07:46:33;;;;;;;39.30;29.20;;;;;;;7.18;67.96;98707.80;105041;1257;59891;-52
2023/02/25 07:49:07;;;;;;;39.70;28.60;;;;;;;7.23;67.74;98705.59;104676;1263;65472;-52
2023/02/25 07:51:37;;;;;;;41.80;29.60;;;;;;;7.26;67.37;98703.42;104854;1262;63598;-54
2023/02/25 07:54:05;;;;;;;40.40;28.10;;;;;;;7.25;67.14;98709.63;105143;1262;64758;-52
2023/02/25 07:56:33;;;;;;;37.60;27.60;;;;;;;7.27;67.13;98715.38;104823;1257;59823;-51
2023/02/25 07:59:02;;;;;;;39.90;26.80;;;;;;;7.31;66.94;98721.67;104929;1259;59743;-51
2023/02/25 08:01:33;;;;;;;38.70;27.40;;;;;;;7.35;66.96;98721.41;104883;1262;65432;-50
2023/02/25 08:04:03;;;;;;;36.70;27.00;;;;;;;7.41;67.00;98719.70;105153;1260;62673;-50
2023/02/25 08:06:36;;;;;;;35.00;27.80;;;;;;;7.44;66.85;98712.08;105066;1261;65252;-52
2023/02/25 08:09:09;;;;;;;38.90;29.40;;;;;;;7.43;66.61;98713.20;104846;1259;59678;-50
2023/02/25 08:11:44;;;;;;;39.50;28.70;;;;;;;7.41;66.66;98711.45;104595;1259;59686;-52
2023/02/25 08:14:12;;;;;;;36.80;26.40;;;;;;;7.40;66.47;98708.44;105098;1257;65900;-52
2023/02/25 08:16:41;;;;;;;23.50;10.60;;;;;;;7.42;66.61;98709.63;104797;1264;64784;-52
2023/02/25 08:19:12;;;;;;;20.20;10.10;;;;;;;7.48;66.53;98707.54;104753;1263;64050;-51
2023/02/25 08:21:41;;;;;;;33.60;26.50;;;;;;;7.52;66.50;98706.58;104997;1259;59758;-51
2023/02/25 08:24:12;;;;;;;22.50;11.60;;;;;;;7.54;66.59;98697.38;104843;1259;60097;-52
2023/02/25 08:26:41;;;;;;;40.50;28.10;;;;;;;7.55;66.79;98690.59;104804;1262;65428;-52
2023/02/25 08:29:09;;;;;;;40.30;28.70;;;;;;;7.62;66.68;98690.17;105087;1258;62543;-51
2023/02/25 08:31:37;;;;;;;37.90;26.90;;;;;;;7.71;66.63;98685.52;104881;1259;65081;-51
2023/02/25 08:34:06;;;;;;;37.10;25.80;;;;;;;7.76;66.29;98685.69;104849;1257;59653;-52
2023/02/25 08:36:36;;;;;;;37.60;26.20;;;;;;;7.86;65.84;98681.45;104841;1262;59570;-52
2023/02/25 08:39:04;;;;;;;36.80;25.20;;;;;;;7.95;65.61;98681.28;104858;1260;64414;-53
2023/02/25 08:41:33;;;;;;;34.80;25.90;;;;;;;7.98;65.44;98682.70;104852;1262;62646;-52
2023/02/25 08:44:03;;;;;;;38.30;26.10;;;;;;;7.98;65.53;98680.27;104797;1258;64731;-50
2023/02/25 08:46:36;;;;;;;34.00;26.70;;;;;;;8.00;65.55;98675.02;104825;1259;60645;-51
2023/02/25 08:49:05;;;;;;;32.40;25.90;;;;;;;8.03;65.37;98670.76;104984;1258;60778;-51
2023/02/25 08:51:34;;;;;;;34.00;24.80;;;;;;;8.03;65.11;98667.09;104876;1262;68046;-54
2023/02/25 08:54:12;;;;;;;30.80;23.30;;;;;;;8.08;65.03;98662.06;105005;1262;64203;-54
2023/02/25 08:56:43;;;;;;;33.70;25.10;;;;;;;8.14;64.74;98660.90;105172;1262;64013;-53
2023/02/25 08:59:13;;;;;;;32.70;24.30;;;;;;;8.16;64.69;98651.14;104858;1262;60585;-52
2023/02/25 09:01:45;;;;;;;31.80;23.60;;;;;;;8.19;64.99;98641.90;104925;1262;60508;-51
2023/02/25 09:04:20;;;;;;;32.90;23.70;;;;;;;8.24;64.85;98629.03;104724;1262;65092;-53
2023/02/25 09:06:50;;;;;;;33.60;24.30;;;;;;;8.28;64.59;98623.43;104955;1262;61679;-53
2023/02/25 09:09:19;;;;;;;32.00;23.50;;;;;;;8.29;64.49;98622.20;104812;1262;65042;-52
2023/02/25 09:11:48;;;;;;;35.60;23.10;;;;;;;8.33;64.47;98623.29;104801;1259;60566;-51
2023/02/25 09:14:18;;;;;;;30.70;20.70;;;;;;;8.41;64.24;98619.85;105047;1262;59785;-52
2023/02/25 09:16:47;;;;;;;28.10;21.40;;;;;;;8.51;63.90;98612.96;104813;1257;65269;-51
2023/02/25 09:19:17;;;;;;;32.90;21.60;;;;;;;8.58;64.10;98605.80;105072;1258;62559;-52
2023/02/25 09:21:49;;;;;;;26.40;20.20;;;;;;;8.66;64.03;98600.54;104840;1258;65059;-51
2023/02/25 09:24:18;;;;;;;31.10;22.70;;;;;;;8.76;64.00;98594.69;105537;1256;60374;-52
2023/02/25 09:26:46;;;;;;;25.70;20.60;;;;;;;8.87;63.76;98588.23;104955;1257;60586;-53
2023/02/25 09:29:15;;;;;;;27.70;19.80;;;;;;;8.95;63.44;98576.15;104731;1260;74977;-52
2023/02/25 09:31:44;;;;;;;25.20;18.70;;;;;;;9.03;63.26;98572.71;104866;1262;61810;-53
2023/02/25 09:34:12;;;;;;;22.70;17.70;;;;;;;9.15;63.09;98562.92;104659;1261;65201;-53
2023/02/25 09:36:41;;;;;;;23.20;17.80;;;;;;;9.30;62.77;98564.58;105337;1261;60457;-53
2023/02/25 09:39:09;;;;;;;26.80;18.60;;;;;;;9.39;62.61;98554.36;105156;1258;60483;-53
2023/02/25 09:42:11;;;;;;;26.20;18.00;;;;;;;9.48;62.51;98545.88;104996;1261;66476;-52
2023/02/25 09:59:04;;;;;;;27.70;16.30;;;;;;;10.09;61.15;98513.10;104920;1273;603501;-52
2023/02/25 10:01:44;;;;;;;24.10;16.30;;;;;;;10.59;59.43;98490.73;107001;1250;312874;-53
2023/02/25 10:04:26;;;;;;;25.30;16.70;;;;;;;10.55;59.11;98484.16;107455;1242;59350;-54
2023/02/25 10:06:54;;;;;;;25.80;16.60;;;;;;;10.49;59.20;98485.71;107252;1245;64271;-52
2023/02/25 10:09:48;;;;;;;22.70;16.50;;;;;;;10.45;59.30;98485.14;107285;1244;62362;-53
2023/02/25 10:12:35;;;;;;;19.20;15.40;;;;;;;10.47;59.16;98483.16;107193;1249;64774;-53
2023/02/25 10:15:22;;;;;;;19.70;15.30;;;;;;;10.41;59.27;98473.31;107302;1247;59162;-52
2023/02/25 10:17:53;;;;;;;18.80;13.90;;;;;;;10.47;59.50;98468.59;107280;1243;59354;-53
2023/02/25 10:20:37;;;;;;;20.30;15.30;;;;;;;10.65;59.15;98471.14;107251;1246;64443;-51
2023/02/25 10:23:09;;;;;;;23.80;16.30;;;;;;;10.81;58.69;98472.22;107367;1244;62530;-52
2023/02/25 10:25:41;;;;;;;21.20;15.90;;;;;;;10.89;58.31;98463.45;107511;1243;65045;-53
2023/02/25 10:28:15;;;;;;;21.80;15.70;;;;;;;10.94;58.10;98460.21;107161;1250;59607;-53
2023/02/25 10:30:56;;;;;;;20.10;15.70;;;;;;;10.90;58.26;98457.84;107177;1248;59635;-52
2023/02/25 10:33:24;;;;;;;22.30;16.30;;;;;;;10.90;58.42;98452.78;107336;1245;64148;-54
2023/02/25 10:36:07;;;;;;;22.00;16.30;;;;;;;10.94;58.08;98444.84;107232;1246;62500;-52
2023/02/25 10:38:34;;;;;;;24.30;16.10;;;;;;;10.96;57.98;98436.01;107332;1243;65243;-52
2023/02/25 10:41:00;;;;;;;23.40;16.50;;;;;;;10.95;58.12;98424.30;107126;1244;59811;-53
2023/02/25 10:43:27;;;;;;;23.10;15.90;;;;;;;10.99;58.26;98416.67;107379;1238;59786;-53
2023/02/25 10:46:19;;;;;;;21.00;14.80;;;;;;;11.09;58.28;98404.02;107617;1243;65040;-53
2023/02/25 10:48:52;;;;;;;20.50;14.20;;;;;;;11.30;57.89;98390.58;107423;1245;62293;-53
2023/02/25 10:51:20;;;;;;;19.70;14.80;;;;;;;11.52;57.35;98389.11;107788;1243;64861;-53
2023/02/25 10:53:57;;;;;;;21.50;15.60;;;;;;;11.64;56.92;98381.02;107715;1243;59671;-55
2023/02/25 10:56:25;;;;;;;21.40;15.30;;;;;;;11.73;56.51;98372.46;107723;1242;59537;-52
2023/02/25 10:59:03;;;;;;;23.00;15.10;;;;;;;11.82;56.13;98362.91;107900;1242;65282;-53
2023/02/25 11:01:36;;;;;;;21.90;15.10;;;;;;;11.90;55.88;98364.66;107966;1243;62291;-53
2023/02/25 11:04:05;;;;;;;20.30;14.50;;;;;;;11.94;55.70;98374.72;107884;1238;65092;-53
2023/02/25 11:06:36;;;;;;;19.20;15.20;;;;;;;12.00;55.69;98378.62;108292;1242;59727;-52
2023/02/25 11:09:06;;;;;;;19.90;15.40;;;;;;;12.07;55.49;98379.03;111367;1238;57551;-52
2023/02/25 11:11:37;;;;;;;21.50;15.90;;;;;;;12.13;55.03;98373.23;107408;1238;65338;-57
2023/02/25 11:14:05;;;;;;;21.10;15.60;;;;;;;12.16;54.72;98361.23;107547;1241;62590;-59
2023/02/25 11:16:36;;;;;;;18.60;15.20;;;;;;;12.14;54.17;98353.95;108612;1241;72307;-54
2023/02/25 11:19:24;;;;;;;22.40;15.50;;;;;;;12.03;54.56;98349.39;107371;1246;59604;-53
2023/02/25 11:21:51;;;;;;;19.30;15.30;;;;;;;11.91;54.60;98342.17;107711;1239;60239;-52
2023/02/25 11:24:30;;;;;;;22.90;16.70;;;;;;;11.77;54.98;98335.83;107944;1242;65314;-54
2023/02/25 11:26:56;;;;;;;22.90;15.60;;;;;;;11.66;55.43;98320.82;107756;1243;62172;-54
2023/02/25 11:29:32;;;;;;;17.80;15.50;;;;;;;11.65;55.64;98307.98;107414;1244;64643;-53
2023/02/25 11:32:06;;;;;;;19.70;15.00;;;;;;;11.64;55.79;98304.73;107833;1243;59645;-54
2023/02/25 11:34:33;;;;;;;19.90;15.80;;;;;;;11.62;56.18;98307.27;107712;1239;59504;-52
2023/02/25 11:37:40;;;;;;;28.10;17.00;;;;;;;11.62;56.30;98304.80;107473;1246;65095;-52
2023/02/25 11:40:31;;;;;;;21.80;17.00;;;;;;;11.65;56.35;98300.79;107651;1243;62701;-51
2023/02/25 11:43:26;;;;;;;23.40;16.50;;;;;;;11.66;56.31;98296.49;107919;1239;64715;-52
2023/02/25 11:45:55;;;;;;;20.60;16.00;;;;;;;11.67;56.52;98295.65;107667;1238;59721;-52
2023/02/25 11:48:34;;;;;;;20.90;13.90;;;;;;;11.78;56.37;98298.60;107609;1243;59652;-54
2023/02/25 11:51:25;;;;;;;19.70;15.70;;;;;;;11.92;55.94;98301.36;107798;1239;64896;-52
2023/02/25 11:53:58;;;;;;;21.90;16.00;;;;;;;11.98;55.50;98301.02;107708;1241;63886;-52
2023/02/25 11:56:29;;;;;;;23.00;16.90;;;;;;;12.01;55.42;98295.94;107837;1243;64665;-51
2023/02/25 11:59:01;;;;;;;21.10;15.60;;;;;;;12.06;55.26;98291.82;107719;1243;59628;-53
2023/02/25 12:02:02;;;;;;;21.90;15.80;;;;;;;12.08;55.03;98292.42;107717;1243;59642;-52
2023/02/25 12:04:47;;;;;;;20.50;16.00;;;;;;;12.07;55.05;98297.11;107708;1243;65245;-51
2023/02/25 12:07:52;;;;;;;22.50;15.40;;;;;;;12.04;55.15;98302.06;108571;1231;63074;-50
2023/02/25 12:10:54;;;;;;;21.90;15.90;;;;;;;11.95;55.15;98295.05;108468;1235;64869;-53